Time;durP1;ratioP1;P1;durP2;ratioP2;P2;SDS_P1;SDS_P2;PMS_P1;PMS_P2;Temp;Humidity;BMP_temperature;BMP_pressure;BME280_temperature;BME280_humidity;BME280_pressure;Samples;Min_cycle;Max_cycle;Signal;HPM_P1;HPM_P2
2022/05/29 00:00:49;;;;;;;;;;;8.90;99.90;;;;;;5057179;28;20255;-73
2022/05/29 00:03:15;;;;;;;;;;;9.00;99.90;;;;;;5057974;28;19923;-73
2022/05/29 00:05:42;;;;;;;;;;;9.10;99.90;;;;;;5055783;28;20018;-74
2022/05/29 00:08:12;;;;;;;;;;;9.10;99.90;;;;;;5060076;28;19917;-73
2022/05/29 00:10:39;;;;;;;;;;;9.20;99.90;;;;;;5071070;28;19916;-73
2022/05/29 00:13:04;;;;;;;;;;;9.20;99.90;;;;;;5061825;28;19970;-74
2022/05/29 00:15:30;;;;;;;;;;;9.20;99.90;;;;;;5060271;28;19913;-75
2022/05/29 00:17:56;;;;;;;;;;;9.20;99.90;;;;;;5058308;28;19913;-74
2022/05/29 00:20:21;;;;;;;;;;;9.20;99.90;;;;;;5057509;28;19909;-74
2022/05/29 00:22:47;;;;;;;;;;;9.20;99.90;;;;;;5054114;28;19920;-73
2022/05/29 00:25:13;;;;;;;;;;;9.10;99.90;;;;;;5053735;28;19913;-76
2022/05/29 00:27:38;;;;;;;;;;;9.00;99.90;;;;;;5055927;28;19983;-75
2022/05/29 00:30:05;;;;;;;;;;;9.00;99.90;;;;;;5055529;28;19917;-75
2022/05/29 00:32:31;;;;;;;;;;;9.10;99.90;;;;;;5043051;28;19909;-74
2022/05/29 00:34:56;;;;;;;;;;;9.10;99.90;;;;;;5056626;28;19909;-76
2022/05/29 00:37:22;;;;;;;;;;;9.20;99.90;;;;;;5056873;28;20363;-77
2022/05/29 00:39:49;;;;;;;;;;;9.20;99.90;;;;;;5055615;28;20212;-74
2022/05/29 00:42:17;;;;;;;;;;;9.20;99.90;;;;;;5061234;28;20688;-76
2022/05/29 00:44:43;;;;;;;;;;;9.30;99.90;;;;;;5056547;28;19939;-77
2022/05/29 00:47:11;;;;;;;;;;;9.30;99.90;;;;;;5055491;28;20303;-76
2022/05/29 00:49:37;;;;;;;;;;;9.40;99.90;;;;;;5054276;28;20215;-74
2022/05/29 00:52:06;;;;;;;;;;;9.40;99.90;;;;;;5055648;28;19915;-75
2022/05/29 00:54:35;;;;;;;;;;;9.50;99.90;;;;;;5055948;28;19921;-78
2022/05/29 00:57:01;;;;;;;;;;;9.60;99.90;;;;;;5055278;28;19913;-73
2022/05/29 00:59:28;;;;;;;;;;;9.70;99.90;;;;;;5045485;28;19970;-74
2022/05/29 01:01:55;;;;;;;;;;;9.70;99.90;;;;;;5042395;28;20067;-73
2022/05/29 01:04:21;;;;;;;;;;;9.70;99.90;;;;;;5053761;28;19962;-75
2022/05/29 01:06:47;;;;;;;;;;;9.70;99.90;;;;;;5055660;28;19917;-76
2022/05/29 01:09:13;;;;;;;;;;;9.70;99.90;;;;;;5053441;28;20258;-76
2022/05/29 01:11:48;;;;;;;;;;;9.80;99.90;;;;;;5070082;28;19936;-74
2022/05/29 01:14:25;;;;;;;;;;;9.70;99.90;;;;;;5055762;28;19932;-74
2022/05/29 01:16:51;;;;;;;;;;;9.80;99.90;;;;;;5054998;28;19920;-77
2022/05/29 01:19:19;;;;;;;;;;;9.80;99.90;;;;;;5055101;28;19966;-76
2022/05/29 01:21:45;;;;;;;;;;;9.80;99.90;;;;;;5055472;28;20351;-76
2022/05/29 01:24:29;;;;;;;;;;;9.90;99.90;;;;;;5054345;28;19913;-77
2022/05/29 01:26:58;;;;;;;;;;;10.00;99.90;;;;;;5042955;28;19917;-74
2022/05/29 01:29:44;;;;;;;;;;;9.90;99.90;;;;;;5049821;28;19916;-73
2022/05/29 01:32:15;;;;;;;;;;;10.00;99.90;;;;;;5052191;28;19912;-77
2022/05/29 01:34:48;;;;;;;;;;;9.90;99.90;;;;;;5054221;28;19927;-77
2022/05/29 01:37:21;;;;;;;;;;;10.00;99.90;;;;;;5054797;28;19921;-75
2022/05/29 01:39:53;;;;;;;;;;;9.90;99.90;;;;;;5044177;28;19920;-76
2022/05/29 01:42:21;;;;;;;;;;;9.90;99.90;;;;;;5053331;28;19913;-75
2022/05/29 01:45:04;;;;;;;;;;;9.80;99.90;;;;;;5051840;28;20003;-74
2022/05/29 01:47:38;;;;;;;;;;;9.80;99.90;;;;;;5053939;28;19987;-76
2022/05/29 01:50:08;;;;;;;;;;;9.80;99.90;;;;;;5054053;28;20010;-76
2022/05/29 01:53:03;;;;;;;;;;;9.80;99.90;;;;;;5045756;28;19913;-74
2022/05/29 01:55:46;;;;;;;;;;;9.90;99.90;;;;;;5044750;28;19928;-75
2022/05/29 01:58:14;;;;;;;;;;;9.90;99.90;;;;;;5052989;28;19913;-74
2022/05/29 02:00:40;;;;;;;;;;;9.80;99.90;;;;;;5053754;28;19916;-76
2022/05/29 02:03:09;;;;;;;;;;;9.90;99.90;;;;;;5051442;28;19916;-75
2022/05/29 02:05:37;;;;;;;;;;;9.80;99.90;;;;;;5048461;28;19917;-74
2022/05/29 02:08:08;;;;;;;;;;;9.80;99.90;;;;;;5053162;28;19921;-75
2022/05/29 02:10:39;;;;;;;;;;;9.80;99.90;;;;;;5054638;28;19913;-75
2022/05/29 02:13:10;;;;;;;;;;;9.80;99.90;;;;;;5053699;28;20009;-74
2022/05/29 02:15:56;;;;;;;;;;;9.80;99.90;;;;;;5051550;28;19913;-74
2022/05/29 02:18:26;;;;;;;;;;;9.70;99.90;;;;;;5052384;28;20326;-74
2022/05/29 02:20:54;;;;;;;;;;;9.70;99.90;;;;;;5051786;28;20006;-75
2022/05/29 02:23:28;;;;;;;;;;;9.70;99.90;;;;;;5052130;28;20516;-74
2022/05/29 02:25:54;;;;;;;;;;;9.70;99.90;;;;;;5051702;28;19924;-75
2022/05/29 02:28:31;;;;;;;;;;;9.70;99.90;;;;;;5053206;28;19917;-75
2022/05/29 02:31:17;;;;;;;;;;;9.70;99.90;;;;;;5054350;28;19913;-75
2022/05/29 02:34:02;;;;;;;;;;;9.80;99.90;;;;;;5049075;28;19919;-74
2022/05/29 02:36:37;;;;;;;;;;;9.80;99.90;;;;;;5028330;28;19912;-74
2022/05/29 02:39:23;;;;;;;;;;;9.80;99.90;;;;;;5049006;28;19920;-74
2022/05/29 02:41:51;;;;;;;;;;;9.80;99.90;;;;;;5050668;28;19994;-74
2022/05/29 02:44:23;;;;;;;;;;;9.80;99.90;;;;;;5047585;28;19952;-73
2022/05/29 02:47:05;;;;;;;;;;;9.70;99.90;;;;;;5053557;28;19924;-74
2022/05/29 02:49:51;;;;;;;;;;;9.70;99.90;;;;;;5052936;28;20315;-73
2022/05/29 02:52:17;;;;;;;;;;;9.70;99.90;;;;;;5039861;28;19927;-73
2022/05/29 02:54:43;;;;;;;;;;;9.70;99.90;;;;;;5044436;28;19921;-74
2022/05/29 02:57:09;;;;;;;;;;;9.70;99.90;;;;;;5044527;28;19913;-74
2022/05/29 02:59:38;;;;;;;;;;;9.60;99.90;;;;;;5054320;28;19923;-74
2022/05/29 03:02:13;;;;;;;;;;;9.60;99.90;;;;;;5050634;28;19913;-74
2022/05/29 03:05:02;;;;;;;;;;;9.60;99.90;;;;;;5050951;28;19923;-74
2022/05/29 03:07:30;;;;;;;;;;;9.60;99.90;;;;;;5040066;28;19917;-75
2022/05/29 03:10:04;;;;;;;;;;;9.60;99.90;;;;;;5042914;28;19965;-75
2022/05/29 03:12:54;;;;;;;;;;;9.70;99.90;;;;;;5045372;28;19925;-75
2022/05/29 03:15:28;;;;;;;;;;;9.60;99.90;;;;;;5046680;28;19913;-75
2022/05/29 03:17:58;;;;;;;;;;;9.60;99.90;;;;;;5047700;28;19920;-75
2022/05/29 03:20:34;;;;;;;;;;;9.60;99.90;;;;;;5052321;28;20330;-75
2022/05/29 03:23:20;;;;;;;;;;;9.60;99.90;;;;;;5047218;28;19960;-75
2022/05/29 03:25:52;;;;;;;;;;;9.60;99.90;;;;;;5066087;28;20059;-75
2022/05/29 03:28:37;;;;;;;;;;;9.60;99.90;;;;;;5056701;28;19917;-76
2022/05/29 03:31:05;;;;;;;;;;;9.60;99.90;;;;;;5056136;28;19919;-77
2022/05/29 03:33:31;;;;;;;;;;;9.60;99.90;;;;;;5045430;28;20225;-76
2022/05/29 03:35:56;;;;;;;;;;;9.60;99.90;;;;;;5046157;28;19919;-76
2022/05/29 03:38:22;;;;;;;;;;;9.50;99.90;;;;;;5052869;28;20278;-76
2022/05/29 03:40:48;;;;;;;;;;;9.60;99.90;;;;;;5055162;28;20244;-79
2022/05/29 03:43:14;;;;;;;;;;;9.50;99.90;;;;;;5056570;28;19913;-75
2022/05/29 03:45:39;;;;;;;;;;;9.50;99.90;;;;;;5054514;28;19966;-75
2022/05/29 03:48:05;;;;;;;;;;;9.50;99.90;;;;;;5056096;28;20315;-76
2022/05/29 03:50:31;;;;;;;;;;;9.50;99.90;;;;;;5056275;28;19912;-76
2022/05/29 03:52:56;;;;;;;;;;;9.50;99.90;;;;;;5050024;28;20306;-77
2022/05/29 03:55:24;;;;;;;;;;;9.50;99.90;;;;;;5053987;28;19925;-76
2022/05/29 03:57:50;;;;;;;;;;;9.50;99.90;;;;;;5054969;28;19921;-75
2022/05/29 04:00:16;;;;;;;;;;;9.50;99.90;;;;;;5054900;28;19923;-75
2022/05/29 04:02:43;;;;;;;;;;;9.50;99.90;;;;;;5052034;28;19921;-76
2022/05/29 04:05:10;;;;;;;;;;;9.50;99.90;;;;;;5048112;28;19913;-75
2022/05/29 04:13:05;;;;;;;;;;;9.60;99.90;;;;;;5048845;28;19939;-77
2022/05/29 04:15:31;;;;;;;;;;;9.70;99.90;;;;;;5049766;28;19913;-75
2022/05/29 04:17:57;;;;;;;;;;;9.80;99.90;;;;;;5048666;28;19920;-76
2022/05/29 04:20:23;;;;;;;;;;;9.80;99.90;;;;;;5049773;28;19929;-75
2022/05/29 04:22:49;;;;;;;;;;;9.80;99.90;;;;;;5049453;28;19924;-76
2022/05/29 04:25:14;;;;;;;;;;;9.80;99.90;;;;;;5048930;28;19999;-75
2022/05/29 04:27:40;;;;;;;;;;;9.90;99.90;;;;;;5047031;28;19921;-74
2022/05/29 04:30:06;;;;;;;;;;;9.80;99.90;;;;;;5049047;28;19917;-76
2022/05/29 04:35:16;;;;;;;;;;;9.80;99.90;;;;;;5051020;28;20373;-76
2022/05/29 04:37:42;;;;;;;;;;;9.80;99.90;;;;;;5049116;28;19913;-76
2022/05/29 04:40:08;;;;;;;;;;;9.70;99.90;;;;;;5051159;28;19913;-76
2022/05/29 04:42:34;;;;;;;;;;;9.70;99.90;;;;;;5045063;28;19913;-76
2022/05/29 04:45:00;;;;;;;;;;;9.70;99.90;;;;;;5049097;28;19951;-75
2022/05/29 04:47:26;;;;;;;;;;;9.60;99.90;;;;;;5050463;28;19936;-77
2022/05/29 04:49:51;;;;;;;;;;;9.60;99.90;;;;;;5046483;28;20185;-74
2022/05/29 04:52:17;;;;;;;;;;;9.60;99.90;;;;;;5049195;28;19913;-76
2022/05/29 04:54:43;;;;;;;;;;;9.60;99.90;;;;;;5047618;28;19948;-76
2022/05/29 04:57:09;;;;;;;;;;;9.60;99.90;;;;;;5046307;28;19920;-75
2022/05/29 04:59:35;;;;;;;;;;;9.70;99.90;;;;;;5049335;28;19920;-77
2022/05/29 05:02:01;;;;;;;;;;;9.70;99.90;;;;;;5053449;28;19913;-75
2022/05/29 05:04:27;;;;;;;;;;;9.80;99.90;;;;;;5050512;28;19921;-77
2022/05/29 05:06:54;;;;;;;;;;;9.90;99.90;;;;;;5042707;28;20313;-78
2022/05/29 05:09:19;;;;;;;;;;;10.00;99.90;;;;;;5059480;28;19913;-78
2022/05/29 05:11:45;;;;;;;;;;;10.10;99.90;;;;;;5053732;28;19920;-75
2022/05/29 05:14:11;;;;;;;;;;;10.20;99.90;;;;;;5053549;28;19917;-77
2022/05/29 05:16:37;;;;;;;;;;;10.30;99.90;;;;;;5052809;28;19912;-76
2022/05/29 05:19:03;;;;;;;;;;;10.30;99.90;;;;;;5051551;28;19999;-76
2022/05/29 05:21:29;;;;;;;;;;;10.40;99.90;;;;;;5050568;28;20007;-76
2022/05/29 05:23:54;;;;;;;;;;;10.40;99.90;;;;;;5052616;28;19964;-76
2022/05/29 05:26:20;;;;;;;;;;;10.30;99.90;;;;;;5054826;28;19929;-76
2022/05/29 05:28:46;;;;;;;;;;;10.40;99.90;;;;;;5055909;28;19924;-77
2022/05/29 05:31:11;;;;;;;;;;;10.40;99.90;;;;;;5046709;28;19925;-75
2022/05/29 05:33:38;;;;;;;;;;;10.50;99.90;;;;;;5048716;28;19919;-76
2022/05/29 05:36:03;;;;;;;;;;;10.50;99.90;;;;;;5052255;28;19920;-77
2022/05/29 05:38:30;;;;;;;;;;;10.50;99.90;;;;;;5049004;28;19913;-78
2022/05/29 05:40:56;;;;;;;;;;;10.60;99.90;;;;;;5042548;28;19955;-76
2022/05/29 05:43:22;;;;;;;;;;;10.50;99.90;;;;;;5043449;28;19949;-75
2022/05/29 05:45:48;;;;;;;;;;;10.40;99.90;;;;;;5048365;28;19919;-76
2022/05/29 05:48:15;;;;;;;;;;;10.50;99.90;;;;;;5064131;28;20215;-77
2022/05/29 05:50:41;;;;;;;;;;;10.60;99.90;;;;;;5052747;28;20231;-75
2022/05/29 05:53:07;;;;;;;;;;;10.70;99.90;;;;;;5049166;28;19913;-76
2022/05/29 05:55:32;;;;;;;;;;;10.70;99.90;;;;;;5051569;28;20204;-75
2022/05/29 05:57:58;;;;;;;;;;;10.60;99.90;;;;;;5044990;28;19965;-75
2022/05/29 06:00:24;;;;;;;;;;;10.60;99.90;;;;;;5046984;28;19914;-76
2022/05/29 06:02:50;;;;;;;;;;;10.60;99.90;;;;;;5042983;28;20016;-75
2022/05/29 06:05:15;;;;;;;;;;;10.40;99.90;;;;;;5047289;28;19928;-77
2022/05/29 06:07:41;;;;;;;;;;;10.40;99.90;;;;;;5045272;28;19921;-75
2022/05/29 06:10:08;;;;;;;;;;;10.40;99.90;;;;;;5049007;28;19920;-75
2022/05/29 06:12:33;;;;;;;;;;;10.40;99.90;;;;;;5043719;28;19940;-78
2022/05/29 06:14:59;;;;;;;;;;;10.40;99.90;;;;;;5045708;28;20573;-75
2022/05/29 06:17:26;;;;;;;;;;;10.50;99.90;;;;;;5048508;28;19920;-77
2022/05/29 06:19:52;;;;;;;;;;;10.80;99.90;;;;;;5048380;28;19913;-78
2022/05/29 06:22:17;;;;;;;;;;;11.10;99.90;;;;;;5048535;28;20224;-75
2022/05/29 06:24:43;;;;;;;;;;;11.20;99.90;;;;;;5047690;28;19939;-75
2022/05/29 06:27:09;;;;;;;;;;;11.20;99.90;;;;;;5052738;28;19921;-76
2022/05/29 06:29:35;;;;;;;;;;;11.30;99.90;;;;;;5047895;28;19978;-75
2022/05/29 06:32:01;;;;;;;;;;;11.40;99.90;;;;;;5048558;28;19921;-75
2022/05/29 06:34:27;;;;;;;;;;;11.40;99.90;;;;;;5048557;28;20021;-76
2022/05/29 06:36:53;;;;;;;;;;;11.50;99.90;;;;;;5048971;28;20012;-74
2022/05/29 06:39:21;;;;;;;;;;;11.40;99.90;;;;;;5045937;28;20294;-76
2022/05/29 06:41:46;;;;;;;;;;;11.50;99.90;;;;;;5043675;28;20211;-76
2022/05/29 06:44:15;;;;;;;;;;;11.60;99.90;;;;;;5043058;28;20436;-75
2022/05/29 06:46:41;;;;;;;;;;;11.60;99.90;;;;;;5045817;28;20197;-77
2022/05/29 06:49:06;;;;;;;;;;;11.90;99.90;;;;;;5048962;28;19921;-77
2022/05/29 06:51:32;;;;;;;;;;;11.90;99.90;;;;;;5043111;28;19913;-77
2022/05/29 06:54:00;;;;;;;;;;;12.10;99.90;;;;;;5045331;28;19913;-75
2022/05/29 06:56:27;;;;;;;;;;;12.10;99.90;;;;;;5044650;28;19925;-78
2022/05/29 06:58:54;;;;;;;;;;;12.30;99.90;;;;;;5048222;28;19916;-76
2022/05/29 07:06:59;;;;;;;;;;;12.40;99.90;;;;;;5048567;28;19942;-75
2022/05/29 07:09:36;;;;;;;;;;;12.50;99.90;;;;;;5048938;28;19921;-76
2022/05/29 07:12:19;;;;;;;;;;;12.40;99.90;;;;;;5053540;28;19913;-76
2022/05/29 07:14:50;;;;;;;;;;;12.40;99.90;;;;;;5055068;28;20007;-75
2022/05/29 07:17:15;;;;;;;;;;;12.50;99.90;;;;;;5057082;28;19959;-75
2022/05/29 07:19:41;;;;;;;;;;;12.40;99.90;;;;;;5054058;28;19939;-75
2022/05/29 07:22:07;;;;;;;;;;;12.30;99.90;;;;;;5057823;28;19944;-76
2022/05/29 07:24:34;;;;;;;;;;;12.30;99.90;;;;;;5053202;28;20315;-76
2022/05/29 07:27:00;;;;;;;;;;;12.10;99.90;;;;;;5051771;28;19925;-75
2022/05/29 07:29:26;;;;;;;;;;;12.10;99.90;;;;;;5057652;28;20307;-75
2022/05/29 07:31:52;;;;;;;;;;;12.20;99.90;;;;;;5052605;28;19912;-76
2022/05/29 07:34:18;;;;;;;;;;;12.10;99.90;;;;;;5050111;28;21586;-77
2022/05/29 07:36:44;;;;;;;;;;;12.10;99.90;;;;;;5053576;28;19975;-74
2022/05/29 07:39:09;;;;;;;;;;;12.10;99.90;;;;;;5056951;28;19917;-75
2022/05/29 07:44:20;;;;;;;;;;;12.70;99.90;;;;;;5054582;28;20033;-76
2022/05/29 07:46:45;;;;;;;;;;;12.50;99.90;;;;;;5057508;28;20331;-76
2022/05/29 07:49:11;;;;;;;;;;;12.60;99.90;;;;;;5055957;28;20224;-77
2022/05/29 07:51:37;;;;;;;;;;;12.40;99.90;;;;;;5053807;28;20192;-76
2022/05/29 07:54:02;;;;;;;;;;;12.40;99.90;;;;;;5054088;28;20001;-77
2022/05/29 07:56:28;;;;;;;;;;;12.20;99.90;;;;;;5057840;28;20230;-77
2022/05/29 07:58:54;;;;;;;;;;;12.20;99.90;;;;;;5048897;28;20253;-76
2022/05/29 08:01:19;;;;;;;;;;;12.40;99.90;;;;;;5055946;28;20239;-75
2022/05/29 08:03:46;;;;;;;;;;;12.50;99.90;;;;;;5057178;28;19916;-75
2022/05/29 08:06:12;;;;;;;;;;;13.00;99.90;;;;;;5051463;28;20232;-76
2022/05/29 08:08:38;;;;;;;;;;;13.20;99.90;;;;;;5049819;28;19919;-77
2022/05/29 08:11:04;;;;;;;;;;;13.50;99.90;;;;;;5049004;28;19917;-76
2022/05/29 08:13:30;;;;;;;;;;;13.50;99.90;;;;;;5047368;28;19944;-74
2022/05/29 08:15:56;;;;;;;;;;;13.50;99.90;;;;;;5048003;28;19959;-76
2022/05/29 08:18:22;;;;;;;;;;;13.50;99.90;;;;;;5049687;28;20383;-75
2022/05/29 08:20:48;;;;;;;;;;;13.60;99.90;;;;;;5048587;28;20258;-77
2022/05/29 08:23:14;;;;;;;;;;;13.50;99.90;;;;;;5051799;28;19917;-73
2022/05/29 08:31:28;;;;;;;;;;;12.70;99.90;;;;;;4978239;28;19921;-75
2022/05/29 08:33:53;;;;;;;;;;;13.30;99.90;;;;;;4975239;28;19933;-75
2022/05/29 08:36:24;;;;;;;;;;;13.80;99.90;;;;;;5006987;28;19921;-75
2022/05/29 08:38:52;;;;;;;;;;;13.70;99.90;;;;;;5045425;28;20059;-73
2022/05/29 08:41:20;;;;;;;;;;;13.40;99.90;;;;;;5052311;28;19936;-73
2022/05/29 08:44:04;;;;;;;;;;;13.30;99.90;;;;;;5054030;28;20013;-74
2022/05/29 08:46:34;;;;;;;;;;;13.20;99.90;;;;;;5054565;28;19943;-75
2022/05/29 08:49:00;;;;;;;;;;;13.20;99.90;;;;;;5055285;28;19964;-74
2022/05/29 08:51:30;;;;;;;;;;;13.20;99.90;;;;;;5055250;28;19955;-75
2022/05/29 08:54:10;;;;;;;;;;;13.20;99.90;;;;;;5055318;28;19948;-75
2022/05/29 08:56:45;;;;;;;;;;;13.30;99.90;;;;;;5053664;28;19928;-74
2022/05/29 08:59:20;;;;;;;;;;;13.30;99.90;;;;;;5060673;28;19916;-74
2022/05/29 09:01:52;;;;;;;;;;;13.30;99.90;;;;;;5056030;28;19956;-75
2022/05/29 09:04:24;;;;;;;;;;;13.50;99.90;;;;;;5052484;28;20200;-77
2022/05/29 09:06:52;;;;;;;;;;;13.70;99.90;;;;;;5042554;28;19952;-75
2022/05/29 09:09:30;;;;;;;;;;;13.40;99.90;;;;;;5044350;28;19920;-74
2022/05/29 09:11:57;;;;;;;;;;;13.60;99.90;;;;;;5051635;28;20312;-74
2022/05/29 09:14:24;;;;;;;;;;;13.80;99.90;;;;;;5046344;28;19913;-74
2022/05/29 09:16:58;;;;;;;;;;;13.80;99.90;;;;;;5051769;28;19921;-75
2022/05/29 09:19:24;;;;;;;;;;;13.20;99.90;;;;;;5045220;28;19916;-74
2022/05/29 09:21:49;;;;;;;;;;;12.80;99.90;;;;;;5041459;28;19943;-75
2022/05/29 09:24:27;;;;;;;;;;;12.50;99.90;;;;;;5044909;28;19928;-74
2022/05/29 09:26:53;;;;;;;;;;;12.30;99.90;;;;;;5047081;28;19925;-76
2022/05/29 09:29:18;;;;;;;;;;;12.30;99.90;;;;;;5050199;28;19959;-75
2022/05/29 09:31:44;;;;;;;;;;;12.50;99.90;;;;;;5048043;28;19976;-75
2022/05/29 09:34:11;;;;;;;;;;;12.60;99.90;;;;;;5059426;28;20258;-74
2022/05/29 09:36:55;;;;;;;;;;;13.10;99.90;;;;;;5046466;28;19920;-76
2022/05/29 09:39:21;;;;;;;;;;;13.30;99.90;;;;;;5045292;28;19924;-74
2022/05/29 09:41:55;;;;;;;;;;;13.50;99.90;;;;;;5049400;28;19913;-75
2022/05/29 09:44:21;;;;;;;;;;;13.80;99.90;;;;;;5047541;28;19917;-76
2022/05/29 09:46:48;;;;;;;;;;;13.80;99.90;;;;;;5045657;28;20199;-76
2022/05/29 09:52:06;;;;;;;;;;;13.80;99.90;;;;;;5047148;28;20223;-76
2022/05/29 09:54:34;;;;;;;;;;;13.50;99.90;;;;;;5046155;28;19924;-75
2022/05/29 09:57:08;;;;;;;;;;;13.30;99.90;;;;;;5048705;28;19925;-75
2022/05/29 09:59:36;;;;;;;;;;;13.00;99.90;;;;;;5047508;28;19913;-75
2022/05/29 10:02:03;;;;;;;;;;;12.80;99.90;;;;;;5043084;28;19916;-74
2022/05/29 10:04:37;;;;;;;;;;;12.70;99.90;;;;;;5048749;28;20592;-75
2022/05/29 10:07:16;;;;;;;;;;;12.70;99.90;;;;;;5043183;28;20266;-75
2022/05/29 10:09:56;;;;;;;;;;;12.70;99.90;;;;;;5052932;28;19912;-74
2022/05/29 10:12:23;;;;;;;;;;;12.80;99.90;;;;;;5051645;28;19914;-74
2022/05/29 10:14:49;;;;;;;;;;;12.90;99.90;;;;;;5036002;28;19952;-78
2022/05/29 10:17:27;;;;;;;;;;;13.00;99.90;;;;;;5050274;28;19970;-74
2022/05/29 10:19:52;;;;;;;;;;;13.10;99.90;;;;;;5053946;28;19913;-74
2022/05/29 10:22:25;;;;;;;;;;;13.10;99.90;;;;;;5052463;28;20364;-74
2022/05/29 10:24:51;;;;;;;;;;;13.10;99.90;;;;;;5051081;28;19995;-74
2022/05/29 10:27:20;;;;;;;;;;;13.00;99.90;;;;;;5049221;28;20282;-75
2022/05/29 10:29:51;;;;;;;;;;;12.90;99.90;;;;;;5043897;28;20295;-76
2022/05/29 10:32:22;;;;;;;;;;;12.70;99.90;;;;;;5039844;28;19917;-75
2022/05/29 10:34:48;;;;;;;;;;;12.60;99.90;;;;;;5038644;28;19917;-76
2022/05/29 10:37:35;;;;;;;;;;;12.60;99.90;;;;;;5040583;28;20233;-73
2022/05/29 10:40:20;;;;;;;;;;;12.50;99.90;;;;;;5040258;28;19913;-76
2022/05/29 10:42:47;;;;;;;;;;;12.50;99.90;;;;;;5040122;28;19924;-75
2022/05/29 10:45:17;;;;;;;;;;;12.50;99.90;;;;;;5047645;28;19928;-78
2022/05/29 10:47:49;;;;;;;;;;;12.50;99.90;;;;;;5049256;28;20016;-76
2022/05/29 10:50:20;;;;;;;;;;;12.60;99.90;;;;;;5045162;28;20617;-77
2022/05/29 10:52:49;;;;;;;;;;;12.70;99.90;;;;;;5046924;28;19970;-79
2022/05/29 10:55:15;;;;;;;;;;;12.90;99.90;;;;;;5048249;28;19928;-77
2022/05/29 10:57:59;;;;;;;;;;;13.00;99.90;;;;;;5058854;28;19966;-77
2022/05/29 11:00:44;;;;;;;;;;;13.40;99.90;;;;;;5043560;28;19921;-77
2022/05/29 11:03:28;;;;;;;;;;;13.60;99.90;;;;;;5045226;28;20007;-75
2022/05/29 11:06:02;;;;;;;;;;;13.80;99.90;;;;;;5049261;28;19952;-76
2022/05/29 11:08:52;;;;;;;;;;;13.70;99.90;;;;;;5042452;28;19920;-78
2022/05/29 11:11:30;;;;;;;;;;;13.70;99.90;;;;;;5047144;28;19944;-76
2022/05/29 11:13:56;;;;;;;;;;;13.50;99.90;;;;;;5045136;28;19925;-76
2022/05/29 11:16:22;;;;;;;;;;;13.60;99.90;;;;;;5046380;28;19920;-77
2022/05/29 11:19:00;;;;;;;;;;;13.70;99.90;;;;;;5048335;28;19963;-79
2022/05/29 11:21:28;;;;;;;;;;;13.60;99.90;;;;;;5045533;28;19912;-77
2022/05/29 11:23:54;;;;;;;;;;;13.60;99.90;;;;;;5045425;28;20235;-77
2022/05/29 11:26:55;;;;;;;;;;;13.50;99.90;;;;;;5047086;28;19925;-77
2022/05/29 11:29:24;;;;;;;;;;;13.30;99.90;;;;;;4990310;28;19918;-77
2022/05/29 11:31:55;;;;;;;;;;;13.20;99.90;;;;;;4990048;28;19973;-76
2022/05/29 11:34:40;;;;;;;;;;;13.40;99.90;;;;;;4989085;28;19961;-77
2022/05/29 11:37:33;;;;;;;;;;;13.50;99.90;;;;;;4974239;28;19918;-76
2022/05/29 11:39:58;;;;;;;;;;;13.60;99.90;;;;;;4985235;28;19945;-77
2022/05/29 11:42:36;;;;;;;;;;;13.60;99.90;;;;;;4972047;28;20336;-75
2022/05/29 11:45:09;;;;;;;;;;;13.60;99.90;;;;;;4977472;28;19914;-76
2022/05/29 11:53:48;;;;;;;;;;;14.70;99.90;;;;;;4991106;28;19924;-77
2022/05/29 11:56:32;;;;;;;;;;;15.20;99.90;;;;;;4982322;28;20022;-77
2022/05/29 11:58:58;;;;;;;;;;;14.80;99.90;;;;;;4994325;28;19918;-78
2022/05/29 12:01:26;;;;;;;;;;;14.50;99.90;;;;;;4978475;28;19913;-79
2022/05/29 12:04:07;;;;;;;;;;;14.20;99.90;;;;;;5034445;28;19912;-78
2022/05/29 12:06:39;;;;;;;;;;;14.10;99.90;;;;;;5050512;28;19920;-77
2022/05/29 12:09:08;;;;;;;;;;;13.80;99.90;;;;;;5051220;28;19921;-78
2022/05/29 12:11:48;;;;;;;;;;;13.60;99.90;;;;;;5048123;28;19920;-78
2022/05/29 12:14:33;;;;;;;;;;;13.50;99.90;;;;;;5046778;28;20024;-78
2022/05/29 12:17:03;;;;;;;;;;;13.50;99.90;;;;;;5050141;28;19913;-76
2022/05/29 12:19:38;;;;;;;;;;;13.20;99.90;;;;;;5050234;28;19956;-76
2022/05/29 12:22:08;;;;;;;;;;;13.00;99.90;;;;;;5048754;28;20260;-78
2022/05/29 12:24:42;;;;;;;;;;;12.80;99.90;;;;;;5049623;28;19939;-78
2022/05/29 12:27:11;;;;;;;;;;;12.70;99.90;;;;;;5051740;28;19916;-80
2022/05/29 12:29:44;;;;;;;;;;;12.60;99.90;;;;;;5049155;28;20004;-79
2022/05/29 12:32:15;;;;;;;;;;;12.50;99.90;;;;;;5050737;28;19923;-79
2022/05/29 12:35:01;;;;;;;;;;;12.50;99.90;;;;;;5049345;28;19920;-79
2022/05/29 12:37:47;;;;;;;;;;;12.60;99.90;;;;;;5048788;28;19952;-78
2022/05/29 12:40:32;;;;;;;;;;;12.60;99.90;;;;;;5040598;28;19961;-76
2022/05/29 12:43:05;;;;;;;;;;;12.70;99.90;;;;;;5046929;28;19913;-77
2022/05/29 12:45:49;;;;;;;;;;;12.70;99.90;;;;;;5049695;28;19940;-77
2022/05/29 12:48:23;;;;;;;;;;;12.80;99.90;;;;;;5050667;28;19928;-77
2022/05/29 12:51:08;;;;;;;;;;;12.80;99.90;;;;;;5045940;28;19913;-79
2022/05/29 12:53:52;;;;;;;;;;;13.00;99.90;;;;;;5048693;28;19913;-78
2022/05/29 12:56:25;;;;;;;;;;;13.10;99.90;;;;;;5050190;28;19921;-77
2022/05/29 12:58:51;;;;;;;;;;;13.20;99.90;;;;;;5051387;28;19996;-78
2022/05/29 13:01:19;;;;;;;;;;;13.40;99.90;;;;;;5050540;28;20347;-79
2022/05/29 13:03:45;;;;;;;;;;;13.50;99.90;;;;;;5050533;28;19916;-77
2022/05/29 13:06:13;;;;;;;;;;;13.50;99.90;;;;;;5049399;28;20264;-77
2022/05/29 13:09:00;;;;;;;;;;;13.70;99.90;;;;;;5047831;28;19920;-77
2022/05/29 13:11:27;;;;;;;;;;;13.80;99.90;;;;;;5051184;28;19974;-79
2022/05/29 13:13:58;;;;;;;;;;;14.00;99.90;;;;;;5048576;28;19920;-77
2022/05/29 13:16:31;;;;;;;;;;;13.90;99.90;;;;;;5050094;28;19921;-77
2022/05/29 13:19:21;;;;;;;;;;;13.70;99.90;;;;;;5048652;28;19912;-78
2022/05/29 13:21:58;;;;;;;;;;;13.80;99.90;;;;;;5049865;28;19917;-79
2022/05/29 13:24:26;;;;;;;;;;;13.80;99.90;;;;;;5046272;28;19919;-78
2022/05/29 13:27:18;;;;;;;;;;;13.90;99.90;;;;;;5048601;28;19921;-78
2022/05/29 13:29:48;;;;;;;;;;;13.60;99.90;;;;;;4991117;28;20336;-78
2022/05/29 13:32:13;;;;;;;;;;;13.50;99.90;;;;;;4993655;28;19926;-81
2022/05/29 13:34:40;;;;;;;;;;;13.40;99.90;;;;;;4993163;28;19928;-82
2022/05/29 13:37:29;;;;;;;;;;;13.60;99.90;;;;;;4992747;28;19937;-79
2022/05/29 13:39:54;;;;;;;;;;;13.60;99.90;;;;;;5007341;28;20434;-77
2022/05/29 13:42:25;;;;;;;;;;;13.70;99.90;;;;;;4990989;28;19956;-79
2022/05/29 13:44:51;;;;;;;;;;;13.80;99.90;;;;;;4991002;28;19918;-79
2022/05/29 13:47:23;;;;;;;;;;;13.70;99.90;;;;;;5005682;28;19936;-78
2022/05/29 13:49:57;;;;;;;;;;;13.60;99.90;;;;;;5006558;28;19913;-80
2022/05/29 13:52:25;;;;;;;;;;;13.40;99.90;;;;;;5006759;28;19928;-79
2022/05/29 13:55:05;;;;;;;;;;;13.50;99.90;;;;;;4989683;28;19929;-79
2022/05/29 14:06:22;;;;;;;;;;;13.40;99.90;;;;;;5022264;28;19931;-79
2022/05/29 14:09:02;;;;;;;;;;;13.60;99.90;;;;;;5050775;28;19931;-77
2022/05/29 14:11:40;;;;;;;;;;;13.60;99.90;;;;;;5046204;28;20018;-78
2022/05/29 14:14:25;;;;;;;;;;;13.70;99.90;;;;;;5045801;28;20003;-78
2022/05/29 14:16:52;;;;;;;;;;;13.60;99.90;;;;;;5050674;28;19913;-78
2022/05/29 14:19:35;;;;;;;;;;;13.30;99.90;;;;;;5047861;28;19920;-78
2022/05/29 14:22:27;;;;;;;;;;;13.20;99.90;;;;;;5048333;28;20011;-79
2022/05/29 14:24:59;;;;;;;;;;;13.00;99.90;;;;;;5046861;28;19917;-75
2022/05/29 14:28:04;;;;;;;;;;;12.70;99.90;;;;;;5046557;28;20258;-78
2022/05/29 14:30:31;;;;;;;;;;;12.60;99.90;;;;;;5048138;28;19913;-78
2022/05/29 14:33:09;;;;;;;;;;;12.50;99.90;;;;;;5047439;28;19921;-78
2022/05/29 14:35:50;;;;;;;;;;;12.40;99.90;;;;;;5045729;28;19927;-78
2022/05/29 14:38:21;;;;;;;;;;;12.40;99.90;;;;;;5046249;28;19928;-77
2022/05/29 14:40:58;;;;;;;;;;;12.30;99.90;;;;;;5047386;28;20003;-78
2022/05/29 14:43:25;;;;;;;;;;;12.20;99.90;;;;;;5045768;28;19917;-81
2022/05/29 14:45:57;;;;;;;;;;;12.20;99.90;;;;;;5047046;28;19920;-77
2022/05/29 14:48:27;;;;;;;;;;;12.20;99.90;;;;;;5046232;28;19971;-79
2022/05/29 14:50:55;;;;;;;;;;;12.20;99.90;;;;;;5044439;28;19970;-78
2022/05/29 14:53:40;;;;;;;;;;;12.30;99.90;;;;;;5045880;28;19921;-78
2022/05/29 14:56:07;;;;;;;;;;;12.40;99.90;;;;;;5047811;28;19925;-78
2022/05/29 14:58:36;;;;;;;;;;;12.40;99.90;;;;;;5044988;28;20024;-81
2022/05/29 15:01:05;;;;;;;;;;;12.40;99.90;;;;;;5050130;28;19913;-78
2022/05/29 15:03:34;;;;;;;;;;;12.50;99.90;;;;;;5043444;28;19928;-78
2022/05/29 15:06:01;;;;;;;;;;;12.50;99.90;;;;;;5046097;28;19952;-76
2022/05/29 15:11:38;;;;;;;;;;;12.40;99.90;;;;;;5047938;28;20008;-78
2022/05/29 15:14:05;;;;;;;;;;;12.40;99.90;;;;;;5047945;28;19943;-80
2022/05/29 15:16:40;;;;;;;;;;;12.40;99.90;;;;;;5047073;28;19917;-79
2022/05/29 15:24:08;;;;;;;;;;;12.40;99.90;;;;;;5048742;28;19920;-78
2022/05/29 15:25:09;;;;;;;;;;;12.30;99.90;;;;;;5053242;28;20327;-79
2022/05/29 15:27:38;;;;;;;;;;;12.20;99.90;;;;;;5049471;28;20051;-77